Howard, Wisconsin
Current Conditions -  °F | °C
As of 3:53 AM on Wednesday 22 Oct 2014 (Local Time) from KGRB Reporting Station
Clear Clear  
Wind Chill: 30°   Ceiling: Unl
Heat Index: 30°   Visibility: 10mi
Dew Point: 29°   Wind: 0mph
Humidity: 96%   Direction: NA
Pressure: 30.34"   Gusts: NA
Location:  44.5933°N, 88.1103°W
Report Text: KGRB 220853Z AUTO 00000KT 10SM CLR M01/M02 A3034 RMK AO2 SLP280 I1000 I3000 T10111017 51012
Loading
Personal Weather Stations






























Interactive Weather Map
Tropical Storm Tracking
New forecast layout! Learn more

10-Day Weather Forecast

Advertisements
Track Severe Weather on mobile